createdAt,value
2022-08-27T00:02:36.544Z,21.90
2022-08-27T00:05:56.049Z,20.83
2022-08-27T00:09:07.326Z,22.45
2022-08-27T00:12:26.371Z,23.48
2022-08-27T00:15:32.567Z,22.73
2022-08-27T00:18:41.086Z,21.65
2022-08-27T00:21:56.358Z,21.63
2022-08-27T00:25:13.725Z,22.23
2022-08-27T00:28:29.730Z,21.05
2022-08-27T00:31:49.493Z,20.30
2022-08-27T00:35:00.131Z,21.35
2022-08-27T00:38:13.002Z,23.38
2022-08-27T00:41:22.673Z,21.98
2022-08-27T00:44:29.532Z,20.02
2022-08-27T00:47:55.538Z,20.48
2022-08-27T00:51:07.185Z,21.67
2022-08-27T00:54:18.725Z,22.38
2022-08-27T00:57:30.901Z,21.52
2022-08-27T01:00:36.329Z,23.55
2022-08-27T01:03:50.195Z,22.85
2022-08-27T01:06:57.208Z,22.63
2022-08-27T01:10:08.691Z,23.40
2022-08-27T01:13:21.599Z,21.15
2022-08-27T01:16:55.157Z,24.92
2022-08-27T01:20:07.366Z,23.90
2022-08-27T01:23:20.994Z,21.88
2022-08-27T01:26:29.701Z,25.95
2022-08-27T01:29:36.404Z,25.13
2022-08-27T01:32:43.468Z,25.30
2022-08-27T01:35:50.851Z,25.35
2022-08-27T01:38:57.534Z,26.83
2022-08-27T01:42:13.140Z,25.27
2022-08-27T01:45:23.019Z,25.95
2022-08-27T01:48:31.458Z,23.83
2022-08-27T01:51:38.117Z,27.02
2022-08-27T01:54:44.534Z,24.63
2022-08-27T01:57:52.719Z,23.38
2022-08-27T02:01:01.615Z,25.50
2022-08-27T02:04:08.039Z,22.17
2022-08-27T02:07:15.431Z,22.50
2022-08-27T02:10:24.904Z,23.17
2022-08-27T02:13:39.475Z,25.55
2022-08-27T02:16:52.040Z,23.35
2022-08-27T02:20:02.937Z,22.90
2022-08-27T02:23:15.577Z,23.40
2022-08-27T02:26:34.078Z,27.02
2022-08-27T02:29:42.654Z,27.13
2022-08-27T02:32:53.087Z,25.15
2022-08-27T02:36:00.980Z,25.52
2022-08-27T02:39:17.570Z,29.50
2022-08-27T02:42:23.905Z,25.50
2022-08-27T02:46:02.964Z,29.30
2022-08-27T02:49:19.595Z,25.30
2022-08-27T02:52:34.750Z,24.98
2022-08-27T02:55:40.908Z,21.45
2022-08-27T02:58:52.088Z,22.45
2022-08-27T03:02:00.624Z,22.33
2022-08-27T03:05:06.770Z,20.20
2022-08-27T03:08:19.518Z,20.77
2022-08-27T03:11:37.011Z,20.05
2022-08-27T03:14:43.394Z,18.30
2022-08-27T03:18:09.865Z,20.13
2022-08-27T03:21:21.200Z,17.85
2022-08-27T03:24:27.568Z,17.75
2022-08-27T03:27:36.711Z,17.10
2022-08-27T03:30:44.413Z,15.63
2022-08-27T03:33:55.782Z,16.23
2022-08-27T03:37:02.558Z,15.00
2022-08-27T03:40:13.518Z,18.20
2022-08-27T03:43:22.317Z,17.17
2022-08-27T03:46:31.064Z,19.30
2022-08-27T03:49:39.023Z,19.88
2022-08-27T03:52:46.419Z,20.80
2022-08-27T03:55:52.998Z,20.60
2022-08-27T03:58:59.211Z,22.85
2022-08-27T04:02:06.171Z,28.00
2022-08-27T04:05:20.644Z,24.08
2022-08-27T04:08:27.200Z,28.50
2022-08-27T04:11:32.983Z,28.95
2022-08-27T04:14:40.470Z,31.48
2022-08-27T04:17:48.084Z,35.53
2022-08-27T04:20:58.832Z,35.83
2022-08-27T04:24:10.723Z,34.50
2022-08-27T04:27:20.163Z,32.53
2022-08-27T04:30:26.126Z,33.55
2022-08-27T04:33:36.542Z,36.65
2022-08-27T04:36:44.829Z,32.58
2022-08-27T04:39:55.929Z,33.95
2022-08-27T04:43:03.709Z,35.25
2022-08-27T04:46:14.270Z,33.28
2022-08-27T04:49:20.533Z,34.50
2022-08-27T04:52:29.049Z,32.55
2022-08-27T04:55:35.491Z,35.95
2022-08-27T04:58:45.626Z,29.27
2022-08-27T05:01:51.958Z,32.08
2022-08-27T05:04:57.836Z,27.90
2022-08-27T05:08:11.914Z,30.40
2022-08-27T05:11:26.839Z,30.05
2022-08-27T05:14:39.965Z,30.65
2022-08-27T05:17:49.689Z,27.73
2022-08-27T05:20:57.923Z,29.42
2022-08-27T05:24:16.175Z,28.08
2022-08-27T05:27:23.852Z,28.73
2022-08-27T05:30:32.095Z,29.77
2022-08-27T05:33:48.887Z,28.60
2022-08-27T05:37:02.929Z,32.75
2022-08-27T05:40:13.537Z,31.27
2022-08-27T05:43:21.714Z,32.05
2022-08-27T05:46:32.803Z,31.45
2022-08-27T05:49:40.735Z,29.95
2022-08-27T05:52:47.166Z,33.55
2022-08-27T05:55:54.901Z,32.35
2022-08-27T05:59:17.824Z,31.20
2022-08-27T06:02:25.694Z,33.20
2022-08-27T06:05:33.122Z,33.20
2022-08-27T06:08:40.725Z,35.33
2022-08-27T06:11:50.515Z,30.35
2022-08-27T06:15:00.371Z,28.10
2022-08-27T06:18:07.273Z,32.20
2022-08-27T06:21:14.298Z,30.13
2022-08-27T06:24:20.978Z,31.67
2022-08-27T06:27:31.232Z,32.15
2022-08-27T06:30:39.516Z,30.65
2022-08-27T06:33:48.549Z,31.83
2022-08-27T06:36:55.765Z,34.42
2022-08-27T06:40:02.085Z,26.50
2022-08-27T06:43:11.300Z,27.67
2022-08-27T06:46:24.785Z,30.65
2022-08-27T06:49:34.927Z,36.28
2022-08-27T06:52:40.613Z,27.58
2022-08-27T06:55:50.471Z,23.60
2022-08-27T06:59:01.100Z,26.23
2022-08-27T07:02:08.939Z,26.42
2022-08-27T07:05:17.848Z,25.27
2022-08-27T07:08:23.896Z,28.08
2022-08-27T07:11:32.835Z,26.55
2022-08-27T07:14:42.627Z,28.27
2022-08-27T07:17:50.005Z,28.73
2022-08-27T07:20:57.248Z,24.50
2022-08-27T07:24:06.413Z,25.63
2022-08-27T07:27:15.865Z,27.13
2022-08-27T07:30:26.108Z,28.17
2022-08-27T07:33:35.170Z,25.75
2022-08-27T07:36:41.893Z,27.88
2022-08-27T07:39:48.830Z,25.00
2022-08-27T07:43:11.371Z,25.35
2022-08-27T07:46:31.319Z,24.60
2022-08-27T07:49:38.547Z,26.63
2022-08-27T07:52:45.186Z,25.40
2022-08-27T07:55:51.389Z,30.13
2022-08-27T07:59:00.461Z,24.20
2022-08-27T08:02:09.706Z,25.85
2022-08-27T08:05:17.559Z,27.17
2022-08-27T08:08:24.907Z,27.60
2022-08-27T08:11:34.621Z,28.15
2022-08-27T08:14:41.129Z,24.35
2022-08-27T08:17:50.820Z,24.27
2022-08-27T08:21:01.598Z,28.67
2022-08-27T08:24:11.339Z,28.08
2022-08-27T08:27:18.841Z,25.67
2022-08-27T08:30:26.555Z,27.80
2022-08-27T08:33:40.666Z,31.98
2022-08-27T08:36:55.092Z,29.95
2022-08-27T08:40:11.590Z,25.17
2022-08-27T08:43:33.187Z,28.05
2022-08-27T08:46:50.716Z,31.15
2022-08-27T08:50:19.166Z,24.33
2022-08-27T08:57:29.199Z,25.27
2022-08-27T09:00:43.133Z,27.67
2022-08-27T09:07:58.268Z,26.23
2022-08-27T09:11:38.447Z,32.08
2022-08-27T09:14:55.670Z,23.55
2022-08-27T09:18:15.281Z,25.98
2022-08-27T09:21:34.076Z,23.35
2022-08-27T09:28:43.173Z,23.30
2022-08-27T09:32:16.465Z,21.05
2022-08-27T09:35:46.511Z,20.42
2022-08-27T09:39:02.471Z,20.30
2022-08-27T09:42:45.984Z,21.52
2022-08-27T09:46:03.746Z,20.90
2022-08-27T09:53:05.887Z,17.67
2022-08-27T09:56:26.589Z,16.83
2022-08-27T09:59:40.687Z,18.95
2022-08-27T10:03:17.862Z,17.30
2022-08-27T10:06:49.438Z,16.55
2022-08-27T10:10:10.147Z,16.35
2022-08-27T10:13:36.437Z,16.92
2022-08-27T10:17:13.639Z,18.40
2022-08-27T10:24:15.959Z,16.65
2022-08-27T10:28:01.906Z,15.18
2022-08-27T10:31:29.697Z,15.65
2022-08-27T10:34:51.784Z,17.80
2022-08-27T10:38:32.019Z,17.00
2022-08-27T10:45:31.164Z,17.63
2022-08-27T10:48:41.597Z,18.05
2022-08-27T10:52:00.212Z,17.75
2022-08-27T10:55:13.344Z,16.33
2022-08-27T10:58:40.696Z,15.73
2022-08-27T11:01:52.762Z,18.55
2022-08-27T11:05:09.167Z,17.92
2022-08-27T11:08:22.074Z,20.65
2022-08-27T11:15:13.128Z,19.70
2022-08-27T11:18:27.030Z,19.25
2022-08-27T11:21:41.352Z,19.65
2022-08-27T11:24:54.333Z,20.05
2022-08-27T11:28:06.026Z,21.65
2022-08-27T11:31:20.178Z,20.42
2022-08-27T11:34:34.424Z,22.77
2022-08-27T11:38:25.950Z,21.48
2022-08-27T11:41:57.608Z,21.30
2022-08-27T11:45:11.758Z,21.63
2022-08-27T11:48:22.321Z,20.42
2022-08-27T11:51:35.307Z,19.55
2022-08-27T11:54:50.606Z,25.83
2022-08-27T11:58:11.005Z,20.73
2022-08-27T12:01:28.852Z,22.02
2022-08-27T12:04:41.013Z,21.35
2022-08-27T12:07:54.839Z,21.58
2022-08-27T12:11:17.427Z,21.23
2022-08-27T12:14:41.393Z,19.35
2022-08-27T12:17:56.086Z,20.95
2022-08-27T12:21:14.641Z,24.42
2022-08-27T12:24:55.468Z,23.27
2022-08-27T12:28:06.116Z,23.75
2022-08-27T12:31:18.331Z,22.58
2022-08-27T12:34:28.668Z,23.00
2022-08-27T12:37:40.118Z,25.15
2022-08-27T12:40:52.153Z,25.42
2022-08-27T12:44:10.645Z,30.30
2022-08-27T12:47:23.769Z,24.63
2022-08-27T12:50:33.757Z,21.25
2022-08-27T12:53:57.651Z,26.95
2022-08-27T12:57:13.265Z,23.38
2022-08-27T13:00:42.929Z,24.77
2022-08-27T13:04:02.035Z,24.25
2022-08-27T13:07:32.879Z,22.17
2022-08-27T13:11:09.015Z,22.92
2022-08-27T13:18:10.307Z,22.35
2022-08-27T13:21:33.638Z,24.00
2022-08-27T13:24:51.524Z,22.75
2022-08-27T13:28:08.618Z,24.02
2022-08-27T13:31:18.629Z,22.45
2022-08-27T13:34:42.963Z,26.38
2022-08-27T13:38:09.201Z,22.40
2022-08-27T13:41:31.545Z,24.38
2022-08-27T13:44:48.025Z,22.77
2022-08-27T13:48:01.238Z,22.98
2022-08-27T13:51:09.594Z,24.58
2022-08-27T13:54:27.534Z,23.95
2022-08-27T13:57:57.409Z,24.00
2022-08-27T14:01:28.797Z,21.05
2022-08-27T14:04:58.999Z,23.83
2022-08-27T14:08:15.346Z,24.73
2022-08-27T14:11:45.413Z,20.90
2022-08-27T14:15:01.935Z,21.77
2022-08-27T14:18:59.026Z,20.60
2022-08-27T14:22:18.948Z,20.02
2022-08-27T14:25:41.083Z,18.20
2022-08-27T14:28:57.301Z,21.27
2022-08-27T14:32:07.581Z,21.40
2022-08-27T14:35:16.251Z,18.15
2022-08-27T14:38:50.377Z,23.45
2022-08-27T14:42:28.807Z,19.75
2022-08-27T14:45:52.258Z,19.23
2022-08-27T14:49:26.590Z,18.23
2022-08-27T14:52:53.325Z,17.92
2022-08-27T15:23:38.555Z,19.17
2022-08-27T15:26:49.244Z,18.55
2022-08-27T15:30:22.439Z,22.10
2022-08-27T15:37:11.557Z,20.20
2022-08-27T15:40:26.837Z,20.13
2022-08-27T15:43:36.601Z,15.45
2022-08-27T15:47:19.644Z,17.67
2022-08-27T15:50:33.123Z,19.02
2022-08-27T15:54:03.907Z,22.73
2022-08-27T15:57:11.774Z,19.05
2022-08-27T16:00:26.426Z,20.55
2022-08-27T16:03:38.193Z,21.10
2022-08-27T16:06:48.156Z,20.85
2022-08-27T16:10:02.394Z,25.08
2022-08-27T16:13:10.259Z,24.50
2022-08-27T16:16:19.460Z,29.90
2022-08-27T16:19:30.783Z,24.30
2022-08-27T16:22:43.455Z,28.05
2022-08-27T16:26:03.258Z,28.60
2022-08-27T16:29:09.353Z,27.63
2022-08-27T16:32:25.979Z,28.52
2022-08-27T16:35:32.388Z,28.70
2022-08-27T16:38:39.907Z,26.15
2022-08-27T16:41:48.718Z,29.23
2022-08-27T16:44:55.810Z,24.83
2022-08-27T16:48:17.300Z,26.45
2022-08-27T16:51:26.705Z,23.63
2022-08-27T16:54:33.326Z,27.10
2022-08-27T16:57:42.043Z,22.95
2022-08-27T17:00:48.851Z,26.67
2022-08-27T17:04:09.047Z,32.20
2022-08-27T17:07:25.904Z,26.67
2022-08-27T17:10:48.647Z,24.85
2022-08-27T17:14:00.161Z,24.13
2022-08-27T17:17:10.277Z,25.23
2022-08-27T17:20:18.447Z,27.77
2022-08-27T17:23:29.841Z,25.35
2022-08-27T17:26:37.195Z,27.23
2022-08-27T17:29:45.944Z,24.35
2022-08-27T17:32:54.206Z,24.17
2022-08-27T17:35:59.958Z,25.73
2022-08-27T17:39:05.531Z,25.77
2022-08-27T17:42:12.864Z,24.60
2022-08-27T17:45:21.905Z,25.42
2022-08-27T17:48:28.218Z,24.35
2022-08-27T17:51:35.156Z,21.52
2022-08-27T17:54:45.314Z,21.63
2022-08-27T17:57:53.497Z,25.75
2022-08-27T18:01:02.774Z,24.95
2022-08-27T18:04:11.029Z,22.77
2022-08-27T18:07:19.060Z,28.10
2022-08-27T18:10:29.043Z,22.90
2022-08-27T18:13:37.995Z,25.75
2022-08-27T18:16:46.656Z,25.85
2022-08-27T18:19:53.301Z,24.67
2022-08-27T18:23:00.108Z,24.98
2022-08-27T18:26:16.418Z,25.25
2022-08-27T18:29:25.906Z,25.85
2022-08-27T18:32:34.224Z,25.48
2022-08-27T18:35:44.268Z,23.00
2022-08-27T18:38:51.915Z,25.20
2022-08-27T18:41:59.600Z,24.73
2022-08-27T18:45:06.181Z,26.75
2022-08-27T18:48:19.909Z,25.45
2022-08-27T18:51:26.320Z,25.23
2022-08-27T18:54:38.508Z,29.65
2022-08-27T18:57:46.939Z,27.98
2022-08-27T19:00:59.785Z,26.25
2022-08-27T19:04:15.403Z,26.52
2022-08-27T19:07:23.237Z,30.05
2022-08-27T19:10:36.117Z,26.88
2022-08-27T19:13:50.680Z,25.58
2022-08-27T19:16:59.023Z,24.23
2022-08-27T19:20:09.130Z,19.33
2022-08-27T19:23:22.089Z,19.75
2022-08-27T19:26:31.556Z,21.50
2022-08-27T19:29:38.331Z,22.05
2022-08-27T19:32:47.369Z,19.20
2022-08-27T19:36:05.291Z,15.82
2022-08-27T19:39:14.747Z,15.98
2022-08-27T19:42:21.713Z,11.90
2022-08-27T19:45:28.325Z,12.23
2022-08-27T19:48:40.056Z,14.88
2022-08-27T19:51:55.140Z,11.02
2022-08-27T19:55:13.526Z,9.07
2022-08-27T19:58:23.150Z,11.80
2022-08-27T20:01:32.212Z,10.65
2022-08-27T20:05:01.206Z,9.20
2022-08-27T20:08:17.514Z,9.73
2022-08-27T20:11:29.010Z,9.70
2022-08-27T20:14:37.998Z,10.20
2022-08-27T20:17:51.429Z,9.15
2022-08-27T20:20:58.758Z,11.20
2022-08-27T20:24:18.952Z,9.15
2022-08-27T20:27:29.724Z,9.38
2022-08-27T20:30:42.046Z,10.15
2022-08-27T20:33:51.577Z,9.85
2022-08-27T20:36:59.560Z,9.50
2022-08-27T20:40:11.244Z,9.05
2022-08-27T20:43:19.386Z,8.70
2022-08-27T20:46:29.647Z,10.02
2022-08-27T20:49:37.864Z,8.15
2022-08-27T21:06:10.204Z,8.20
2022-08-27T21:09:20.376Z,10.25
2022-08-27T21:13:12.768Z,10.43
2022-08-27T21:17:11.886Z,9.10
2022-08-27T21:24:16.918Z,9.77
2022-08-27T21:27:27.249Z,10.77
2022-08-27T21:30:33.614Z,10.90
2022-08-27T21:33:39.999Z,10.27
2022-08-27T21:37:00.920Z,9.63
2022-08-27T21:40:10.131Z,10.93
2022-08-27T21:43:19.773Z,11.57
2022-08-27T21:46:26.122Z,12.10
2022-08-27T21:49:36.613Z,14.38
2022-08-27T21:52:47.794Z,15.07
2022-08-27T21:55:55.492Z,18.70
2022-08-27T21:59:00.426Z,17.25
2022-08-27T22:02:22.990Z,19.42
2022-08-27T22:05:33.307Z,19.45
2022-08-27T22:08:43.105Z,22.60
2022-08-27T22:11:51.682Z,20.10
2022-08-27T22:14:57.654Z,19.58
2022-08-27T22:18:03.506Z,19.05
2022-08-27T22:21:07.258Z,20.63
2022-08-27T22:24:16.561Z,19.38
2022-08-27T22:27:27.423Z,19.95
2022-08-27T22:30:33.963Z,19.80
2022-08-27T22:33:39.634Z,15.30
2022-08-27T22:36:43.298Z,19.40
2022-08-27T22:39:50.746Z,15.32
2022-08-27T22:42:58.269Z,15.93
2022-08-27T22:46:04.903Z,14.68
2022-08-27T22:49:11.843Z,13.23
2022-08-27T22:52:18.433Z,16.55
2022-08-27T22:55:27.586Z,14.13
2022-08-27T22:58:34.014Z,15.25
2022-08-27T23:01:41.056Z,15.35
2022-08-27T23:04:56.172Z,14.57
2022-08-27T23:08:02.787Z,15.57
2022-08-27T23:11:10.823Z,17.65
2022-08-27T23:14:17.356Z,14.65
2022-08-27T23:17:24.621Z,13.00
2022-08-27T23:20:32.496Z,18.10
2022-08-27T23:23:40.591Z,14.43
2022-08-27T23:27:05.228Z,13.25
2022-08-27T23:30:13.365Z,15.10
2022-08-27T23:33:19.636Z,11.77
2022-08-27T23:36:30.775Z,15.85
2022-08-27T23:39:36.305Z,13.60
2022-08-27T23:42:46.066Z,11.45
2022-08-27T23:45:53.644Z,14.55
2022-08-27T23:49:00.774Z,12.30
2022-08-27T23:52:10.290Z,13.20
2022-08-27T23:55:20.026Z,12.48
2022-08-27T23:58:29.569Z,12.05
